Time;durP1;ratioP1;P1;durP2;ratioP2;P2;SDS_P1;SDS_P2;PMS_P1;PMS_P2;Temp;Humidity;BMP_temperature;BMP_pressure;BME280_temperature;BME280_humidity;BME280_pressure;Samples;Min_cycle;Max_cycle;Signal;HPM_P1;HPM_P2
2022/06/08 04:49:03;;;;;;;;;3.00;3.00;;;;;19.46;63.36;100710.16;2558241;23;46026;-77
2022/06/08 04:50:14;;;;;;;;;5.00;3.00;;;;;19.44;63.71;100710.28;2399440;28;45589;-77
2022/06/08 04:51:24;;;;;;;;;4.00;4.00;;;;;19.47;63.45;100708.34;2401236;28;46179;-77
2022/06/08 04:52:36;;;;;;;;;4.00;4.00;;;;;19.47;63.66;100719.88;2402319;28;45486;-77
2022/06/08 04:53:47;;;;;;;;;2.75;2.75;;;;;19.45;63.67;100705.78;2394621;28;45330;-77
2022/06/08 04:54:58;;;;;;;;;3.00;3.00;;;;;19.47;63.44;100709.19;2401696;28;45332;-77
2022/06/08 04:56:09;;;;;;;;;3.00;3.00;;;;;19.45;63.32;100706.66;2401588;28;45403;-77
2022/06/08 04:57:19;;;;;;;;;5.25;3.00;;;;;19.44;63.17;100710.28;2397741;28;45241;-77
2022/06/08 04:58:30;;;;;;;;;2.50;2.00;;;;;19.42;63.23;100704.19;2395214;28;45419;-76
2022/06/08 04:59:40;;;;;;;;;5.50;5.00;;;;;19.38;63.52;100704.53;2400394;28;45253;-76
2022/06/08 05:00:51;;;;;;;;;3.00;3.00;;;;;19.36;63.31;100693.13;2402156;28;45576;-77
2022/06/08 05:02:01;;;;;;;;;3.00;3.00;;;;;19.30;63.11;100697.09;2395198;28;45296;-77
2022/06/08 05:03:11;;;;;;;;;2.00;2.00;;;;;19.28;63.23;100704.34;2401928;28;46359;-77
2022/06/08 05:04:22;;;;;;;;;2.00;2.00;;;;;19.23;63.73;100704.66;2410696;28;45343;-76
2022/06/08 05:05:37;;;;;;;;;6.25;3.00;;;;;19.18;63.45;100701.47;2408139;28;46186;-77
2022/06/08 05:06:47;;;;;;;;;3.00;3.00;;;;;19.15;63.11;100697.19;2401319;28;45380;-77
2022/06/08 05:07:59;;;;;;;;;3.25;3.25;;;;;19.15;63.49;100698.97;2402259;28;46485;-77
2022/06/08 05:09:09;;;;;;;;;5.00;3.50;;;;;19.11;63.59;100691.19;2403529;28;45345;-77
2022/06/08 05:10:22;;;;;;;;;6.00;4.00;;;;;19.12;63.69;100695.56;2401920;28;46278;-77
2022/06/08 05:11:32;;;;;;;;;4.75;4.00;;;;;19.14;63.92;100694.63;2402104;28;45300;-77
2022/06/08 05:12:43;;;;;;;;;3.00;2.00;;;;;19.14;63.56;100698.13;2402029;28;46421;-77
2022/06/08 05:13:54;;;;;;;;;6.50;6.00;;;;;19.14;63.60;100698.13;2402226;28;45545;-77
2022/06/08 05:15:07;;;;;;;;;3.00;3.00;;;;;19.15;63.41;100698.97;2401797;28;45411;-77
2022/06/08 05:16:18;;;;;;;;;4.25;4.00;;;;;19.14;63.60;100700.78;2402113;28;45363;-77
2022/06/08 05:17:28;;;;;;;;;8.25;6.50;;;;;19.14;63.49;100691.97;2401949;28;45614;-77
2022/06/08 05:18:39;;;;;;;;;7.75;3.00;;;;;19.14;63.58;100692.78;2410499;28;45421;-77
2022/06/08 05:19:50;;;;;;;;;4.25;3.75;;;;;19.12;63.82;100684.91;2408263;28;48011;-77
2022/06/08 05:21:00;;;;;;;;;5.50;3.00;;;;;19.12;63.55;100690.25;2401148;28;45388;-77
2022/06/08 05:22:11;;;;;;;;;3.00;2.00;;;;;19.09;63.68;100684.28;2401539;28;46072;-77
2022/06/08 05:23:26;;;;;;;;;5.00;3.00;;;;;19.11;63.77;100688.53;2400805;28;44847;-77
2022/06/08 05:24:36;;;;;;;;;2.50;2.50;;;;;19.11;63.63;100687.72;2398636;28;45510;-77
2022/06/08 05:25:47;;;;;;;;;4.00;3.00;;;;;19.10;63.84;100692.19;2402042;28;45467;-77
2022/06/08 05:26:58;;;;;;;;;3.00;3.00;;;;;19.10;63.74;100692.19;2401841;28;46056;-77
2022/06/08 05:28:09;;;;;;;;;3.25;2.75;;;;;19.10;63.68;100686.84;2402026;28;44719;-77
2022/06/08 05:29:20;;;;;;;;;3.25;3.00;;;;;19.08;63.80;100683.44;2401792;28;45669;-77
2022/06/08 05:30:32;;;;;;;;;6.50;5.75;;;;;19.09;64.05;100681.59;2402096;28;44671;-77
2022/06/08 05:31:42;;;;;;;;;2.50;1.25;;;;;19.07;63.35;100681.72;2401688;28;45338;-77
2022/06/08 05:32:53;;;;;;;;;6.50;3.00;;;;;19.08;63.86;100675.47;2401961;28;45296;-77
2022/06/08 05:34:04;;;;;;;;;3.50;3.25;;;;;19.08;64.40;100683.44;2398243;28;45471;-77
2022/06/08 05:35:14;;;;;;;;;2.00;2.00;;;;;19.10;64.17;100678.00;2395186;28;45456;-77
2022/06/08 05:36:25;;;;;;;;;4.00;2.25;;;;;19.10;64.17;100686.84;2397506;28;46702;-77
2022/06/08 05:37:35;;;;;;;;;1.75;1.75;;;;;19.08;63.82;100675.47;2402015;28;45323;-77
2022/06/08 05:38:45;;;;;;;;;4.50;3.25;;;;;19.05;63.94;100672.13;2400741;28;45423;-77
2022/06/08 05:39:56;;;;;;;;;5.75;3.00;;;;;19.05;63.99;100678.31;2399810;28;45511;-76
2022/06/08 05:41:06;;;;;;;;;5.00;4.00;;;;;19.04;64.24;100675.78;2402127;28;45471;-77
2022/06/08 05:42:16;;;;;;;;;3.00;3.00;;;;;19.02;64.27;100670.53;2397264;28;45354;-76
2022/06/08 05:43:28;;;;;;;;;3.00;3.00;;;;;19.01;63.92;100676.84;2397741;28;46282;-76
2022/06/08 05:44:38;;;;;;;;;3.00;3.00;;;;;18.96;63.51;100671.84;2401087;28;45272;-76
2022/06/08 05:45:49;;;;;;;;;3.00;3.00;;;;;18.94;63.80;100678.25;2395062;28;48043;-76
2022/06/08 05:46:59;;;;;;;;;3.25;3.25;;;;;18.92;64.29;100672.13;2402267;28;45301;-76
2022/06/08 05:48:10;;;;;;;;;6.25;2.50;;;;;18.91;64.26;100673.97;2402645;28;46627;-76
2022/06/08 05:49:20;;;;;;;;;5.75;4.50;;;;;18.88;63.96;100674.19;2402059;28;45281;-76
2022/06/08 05:50:32;;;;;;;;;2.00;2.00;;;;;18.86;64.21;100674.31;2402667;28;45502;-76
2022/06/08 05:51:42;;;;;;;;;3.75;3.00;;;;;18.84;64.01;100672.69;2402912;28;44631;-76
2022/06/08 05:52:53;;;;;;;;;3.75;3.75;;;;;18.81;64.05;100675.56;2402310;28;46213;-76
2022/06/08 05:54:04;;;;;;;;;4.00;3.00;;;;;18.81;64.34;100673.75;2401890;28;46845;-76
2022/06/08 05:55:16;;;;;;;;;6.50;4.00;;;;;18.83;64.38;100674.50;2410263;28;47414;-76
2022/06/08 05:56:26;;;;;;;;;2.00;2.00;;;;;18.84;64.54;100675.38;2400800;28;45368;-76
2022/06/08 05:57:36;;;;;;;;;4.50;3.75;;;;;18.84;64.25;100676.19;2402321;28;46324;-76
2022/06/08 05:58:47;;;;;;;;;2.75;2.75;;;;;18.85;64.16;100672.59;2406684;28;45341;-76
2022/06/08 05:59:57;;;;;;;;;3.00;1.50;;;;;18.84;64.61;100670.03;2400240;28;46293;-76
2022/06/08 06:01:07;;;;;;;;;4.25;4.00;;;;;18.84;64.64;100676.19;2402945;28;45419;-76
2022/06/08 06:02:18;;;;;;;;;7.00;5.75;;;;;18.86;64.80;100676.97;2401160;28;45498;-76
2022/06/08 06:03:28;;;;;;;;;3.50;3.00;;;;;18.86;64.91;100676.09;2401928;28;45347;-76
2022/06/08 06:04:39;;;;;;;;;3.25;3.25;;;;;18.88;64.77;100674.19;2403370;28;45383;-76
2022/06/08 06:05:49;;;;;;;;;4.75;3.00;;;;;18.88;64.57;100671.50;2402041;28;45253;-76
2022/06/08 06:07:00;;;;;;;;;3.50;3.25;;;;;18.88;64.86;100667.06;2402837;28;46089;-76
2022/06/08 06:08:11;;;;;;;;;6.75;4.50;;;;;18.88;64.27;100666.19;2411736;28;45273;-76
2022/06/08 06:09:21;;;;;;;;;3.00;2.25;;;;;18.88;64.76;100667.06;2408542;28;46474;-76
2022/06/08 06:10:34;;;;;;;;;3.50;3.50;;;;;18.91;64.48;100670.44;2403457;28;45199;-76
2022/06/08 06:11:45;;;;;;;;;2.00;2.00;;;;;18.89;64.56;100670.53;2404181;28;45475;-76
2022/06/08 06:12:55;;;;;;;;;5.25;3.00;;;;;18.88;64.41;100682.16;2411933;28;45463;-76
2022/06/08 06:14:07;;;;;;;;;3.50;3.00;;;;;18.85;64.81;100677.91;2409246;28;45348;-76
2022/06/08 06:15:17;;;;;;;;;3.00;3.00;;;;;18.84;65.07;100678.84;2401950;28;45549;-76
2022/06/08 06:16:27;;;;;;;;;3.00;3.00;;;;;18.85;65.08;100683.22;2404041;28;46324;-76
2022/06/08 06:17:38;;;;;;;;;10.00;6.25;;;;;18.88;65.32;100675.03;2404265;28;45398;-76
2022/06/08 06:18:48;;;;;;;;;7.25;5.00;;;;;18.88;65.07;100675.03;2403718;28;45470;-76
2022/06/08 06:19:59;;;;;;;;;5.00;3.00;;;;;18.91;64.66;100675.78;2403489;28;45079;-76
2022/06/08 06:21:25;;;;;;;;;3.25;3.25;;;;;18.87;64.69;100670.66;2404088;28;46465;-76
2022/06/08 06:22:35;;;;;;;;;3.75;3.75;;;;;18.86;64.99;100676.97;2412659;28;45478;-76
2022/06/08 06:23:46;;;;;;;;;5.50;3.00;;;;;18.85;64.85;100677.91;2408741;28;45403;-76
2022/06/08 06:24:56;;;;;;;;;3.50;3.00;;;;;18.86;65.06;100678.75;2403442;28;45367;-76
2022/06/08 06:26:07;;;;;;;;;3.50;3.00;;;;;18.86;64.99;100674.31;2402757;28;45715;-76
2022/06/08 06:27:17;;;;;;;;;3.00;2.75;;;;;18.87;65.11;100669.81;2403920;28;45218;-76
2022/06/08 06:28:27;;;;;;;;;3.00;3.00;;;;;18.87;65.24;100678.66;2403726;28;45291;-76
2022/06/08 06:29:38;;;;;;;;;10.00;7.50;;;;;18.88;65.39;100671.50;2401366;28;45717;-76
2022/06/08 06:30:49;;;;;;;;;5.00;5.00;;;;;18.89;65.48;100674.06;2402516;28;46310;-76
2022/06/08 06:32:04;;;;;;;;;2.00;2.00;;;;;18.91;65.12;100676.63;2403457;28;45474;-76
2022/06/08 06:33:14;;;;;;;;;4.50;3.50;;;;;18.93;65.12;100677.38;2403983;28;45385;-76
2022/06/08 06:34:26;;;;;;;;;3.75;2.25;;;;;18.96;65.64;100676.31;2403178;28;44805;-76
2022/06/08 06:35:37;;;;;;;;;4.50;4.00;;;;;18.96;65.44;100679.84;2409293;28;47226;-76
2022/06/08 06:36:48;;;;;;;;;3.25;2.75;;;;;18.98;65.01;100675.25;2406318;28;45378;-76
2022/06/08 06:37:59;;;;;;;;;4.75;3.00;;;;;18.99;65.00;100678.75;2399748;28;45676;-76
2022/06/08 06:39:09;;;;;;;;;4.75;4.50;;;;;18.99;64.90;100678.75;2400660;28;45508;-76
2022/06/08 06:40:20;;;;;;;;;5.00;3.75;;;;;18.99;65.19;100682.25;2408781;28;48108;-76
2022/06/08 06:41:31;;;;;;;;;4.00;2.75;;;;;19.00;65.26;100675.13;2409084;28;45479;-76
2022/06/08 06:42:41;;;;;;;;;5.25;4.00;;;;;19.01;65.35;100682.16;2403078;28;47475;-76
2022/06/08 06:43:52;;;;;;;;;5.50;5.00;;;;;19.04;65.45;100681.09;2401467;28;44835;-76
2022/06/08 06:45:03;;;;;;;;;6.25;6.25;;;;;19.04;65.34;100687.25;2407949;28;47747;-76
2022/06/08 06:46:15;;;;;;;;;6.50;3.75;;;;;19.05;65.37;100686.31;2408651;28;45133;-76
2022/06/08 06:47:25;;;;;;;;;0.75;0.00;;;;;19.06;65.17;100681.84;2407593;28;45376;-76
2022/06/08 06:48:36;;;;;;;;;3.50;3.25;;;;;19.08;65.14;100682.59;2411763;28;45282;-76
2022/06/08 06:49:46;;;;;;;;;2.00;2.00;;;;;19.10;64.84;100686.84;2409129;28;46470;-76
2022/06/08 06:50:57;;;;;;;;;3.00;3.00;;;;;19.06;65.29;100677.34;2412474;28;45422;-76
2022/06/08 06:52:10;;;;;;;;;2.00;2.00;;;;;19.09;65.32;100687.78;2402803;28;48454;-76
2022/06/08 06:53:20;;;;;;;;;2.50;2.50;;;;;19.07;65.54;100687.06;2402860;28;45267;-76
2022/06/08 06:54:31;;;;;;;;;0.00;0.00;;;;;19.10;65.20;100693.97;2402877;28;45260;-76
2022/06/08 06:55:42;;;;;;;;;3.50;2.00;;;;;19.09;65.42;100689.59;2403316;28;45238;-76
2022/06/08 06:56:52;;;;;;;;;4.00;3.00;;;;;19.09;64.90;100692.25;2403542;28;46087;-76
2022/06/08 06:58:03;;;;;;;;;1.25;1.25;;;;;19.07;65.16;100689.72;2403442;28;45217;-76
2022/06/08 06:59:13;;;;;;;;;2.00;2.00;;;;;19.04;64.76;100689.94;2401531;28;47963;-76
2022/06/08 07:00:25;;;;;;;;;4.00;3.00;;;;;19.02;65.29;100689.19;2401469;28;45441;-77
2022/06/08 07:01:36;;;;;;;;;3.00;3.00;;;;;19.01;65.10;100693.66;2409600;28;45569;-76
2022/06/08 07:02:46;;;;;;;;;3.25;2.00;;;;;18.97;65.12;100692.19;2402585;28;44752;-76
2022/06/08 07:03:57;;;;;;;;;1.00;1.00;;;;;18.97;64.98;100691.31;2403562;28;46117;-76
2022/06/08 07:05:14;;;;;;;;;3.75;2.75;;;;;18.95;65.52;100682.59;2402896;28;47067;-76
2022/06/08 07:06:24;;;;;;;;;1.75;1.75;;;;;18.93;65.19;100688.03;2403160;28;46662;-76
2022/06/08 07:07:35;;;;;;;;;2.00;2.00;;;;;18.95;65.53;100682.59;2403054;28;44619;-76
2022/06/08 07:08:45;;;;;;;;;2.00;2.00;;;;;18.97;65.21;100688.66;2401793;28;46823;-76
2022/06/08 07:09:55;;;;;;;;;2.75;2.50;;;;;18.98;65.36;100690.38;2400941;28;45454;-76
2022/06/08 07:12:36;;;;;;;;;2.00;2.00;;;;;19.00;65.27;100691.97;2399243;28;44900;-76
2022/06/08 07:13:47;;;;;;;;;1.00;1.00;;;;;19.03;65.39;100701.56;2400558;28;46333;-76
2022/06/08 07:14:57;;;;;;;;;2.00;2.00;;;;;19.03;65.00;100693.56;2402562;28;45324;-76
2022/06/08 07:16:08;;;;;;;;;1.00;1.00;;;;;19.04;65.63;100692.59;2401154;28;46650;-76
2022/06/08 07:17:18;;;;;;;;;2.75;2.50;;;;;19.05;65.71;100688.13;2399255;28;45526;-76
2022/06/08 07:18:29;;;;;;;;;2.75;2.00;;;;;19.06;65.38;100692.50;2399331;28;47116;-76
2022/06/08 07:19:39;;;;;;;;;4.25;4.25;;;;;19.06;65.50;100690.66;2399415;28;45517;-76
2022/06/08 07:20:49;;;;;;;;;2.00;2.00;;;;;19.07;65.21;100687.06;2399702;28;46750;-76
2022/06/08 07:22:00;;;;;;;;;3.50;2.50;;;;;19.05;65.22;100693.44;2399692;28;45541;-76
2022/06/08 07:23:10;;;;;;;;;1.50;1.50;;;;;19.05;64.89;100688.97;2399162;28;46474;-76
2022/06/08 07:24:24;;;;;;;;;1.25;1.25;;;;;19.08;65.48;100698.56;2399591;28;45481;-77
2022/06/08 07:25:35;;;;;;;;;3.25;3.25;;;;;19.08;65.71;100687.91;2399794;28;46354;-76
2022/06/08 07:26:45;;;;;;;;;2.75;2.75;;;;;19.08;65.19;100687.91;2399541;28;46038;-77
2022/06/08 07:27:56;;;;;;;;;3.25;2.00;;;;;19.06;65.07;100693.31;2400160;28;45498;-77
2022/06/08 07:29:06;;;;;;;;;1.75;1.25;;;;;19.07;65.17;100697.72;2402940;28;45248;-76
2022/06/08 07:30:17;;;;;;;;;2.00;2.00;;;;;19.06;65.59;100689.84;2402214;28;45367;-76
2022/06/08 07:31:27;;;;;;;;;3.00;3.00;;;;;19.09;65.37;100690.47;2412432;28;45337;-76
2022/06/08 07:32:38;;;;;;;;;3.00;3.00;;;;;19.11;65.50;100693.03;2402870;28;46576;-76
2022/06/08 07:33:48;;;;;;;;;2.25;1.50;;;;;19.11;65.43;100691.19;2402206;28;45374;-76
2022/06/08 07:34:59;;;;;;;;;1.75;1.00;;;;;19.10;65.42;100693.97;2401113;28;48005;-76
2022/06/08 07:36:10;;;;;;;;;2.50;2.00;;;;;19.11;65.54;100693.84;2400029;28;45503;-77
2022/06/08 07:37:22;;;;;;;;;2.75;2.75;;;;;19.12;65.30;100698.25;2403367;28;45366;-77
2022/06/08 07:38:33;;;;;;;;;2.75;2.00;;;;;19.14;65.46;100692.78;2402053;28;44854;-77
2022/06/08 07:39:44;;;;;;;;;4.00;2.00;;;;;19.14;65.39;100692.78;2403610;28;46480;-77
2022/06/08 07:40:54;;;;;;;;;6.25;3.00;;;;;19.17;65.55;100702.38;2403540;28;45348;-76
2022/06/08 07:42:05;;;;;;;;;1.25;1.00;;;;;19.18;65.34;100702.31;2403497;28;45343;-76
2022/06/08 07:43:16;;;;;;;;;1.00;1.00;;;;;19.20;65.75;100702.22;2403600;28;45213;-76
2022/06/08 07:44:27;;;;;;;;;1.25;1.25;;;;;19.21;66.14;100690.59;2403304;28;46223;-76
2022/06/08 07:45:37;;;;;;;;;2.75;2.50;;;;;19.24;65.75;100690.38;2401709;28;45215;-77
2022/06/08 07:46:48;;;;;;;;;3.00;1.25;;;;;19.26;65.84;100696.44;2403514;28;46852;-77
2022/06/08 07:49:36;;;;;;;;;3.75;1.50;;;;;19.25;65.60;100689.41;2409976;28;45302;-77
2022/06/08 07:50:47;;;;;;;;;2.00;1.00;;;;;19.25;65.32;100689.41;2399487;28;45513;-76
2022/06/08 07:51:57;;;;;;;;;1.00;1.00;;;;;19.25;65.16;100689.41;2399176;28;46400;-76
2022/06/08 07:53:08;;;;;;;;;3.00;1.00;;;;;19.27;65.50;100678.63;2408112;28;45368;-76
2022/06/08 07:54:24;;;;;;;;;1.50;1.25;;;;;19.28;65.00;100694.53;2405924;28;45335;-76
2022/06/08 07:55:34;;;;;;;;;2.00;2.00;;;;;19.28;65.42;100686.53;2408594;28;44801;-76
2022/06/08 07:56:45;;;;;;;;;2.00;2.00;;;;;19.29;65.00;100692.69;2405522;28;46402;-76
2022/06/08 07:57:55;;;;;;;;;1.75;1.00;;;;;19.28;65.06;100696.34;2401912;28;45430;-76
2022/06/08 07:59:05;;;;;;;;;2.00;0.25;;;;;19.28;64.70;100696.34;2402839;28;45459;-76
2022/06/08 08:00:17;;;;;;;;;1.75;1.75;;;;;19.29;65.22;100692.69;2399528;28;44810;-76
2022/06/08 08:01:27;;;;;;;;;2.00;2.00;;;;;19.26;65.32;100682.28;2397845;28;46341;-76
2022/06/08 08:02:38;;;;;;;;;3.00;2.00;;;;;19.28;65.49;100678.56;2410793;28;45584;-77
2022/06/08 08:03:48;;;;;;;;;2.50;2.00;;;;;19.29;65.40;100680.22;2401840;28;48057;-76
2022/06/08 08:04:58;;;;;;;;;0.75;0.75;;;;;19.27;65.14;100686.63;2401324;28;44785;-77
2022/06/08 08:06:09;;;;;;;;;0.75;0.75;;;;;19.24;65.28;100682.38;2403641;28;45298;-77
2022/06/08 08:07:19;;;;;;;;;1.75;1.00;;;;;19.21;65.28;100685.28;2403025;28;45229;-76
2022/06/08 08:08:30;;;;;;;;;2.00;0.75;;;;;19.21;65.90;100679.94;2402637;28;46445;-76
2022/06/08 08:09:40;;;;;;;;;1.25;1.25;;;;;19.22;65.94;100676.31;2402248;28;46475;-76
2022/06/08 08:10:51;;;;;;;;;1.25;1.00;;;;;19.23;66.18;100667.38;2400130;28;46336;-76
2022/06/08 08:12:03;;;;;;;;;1.25;1.25;;;;;19.25;65.62;100684.09;2395007;28;45271;-76
2022/06/08 08:13:14;;;;;;;;;4.00;2.00;;;;;19.25;65.86;100668.09;2402968;28;45276;-76
2022/06/08 08:14:25;;;;;;;;;3.00;1.00;;;;;19.26;66.39;100667.13;2403532;28;45249;-76
2022/06/08 08:15:35;;;;;;;;;2.00;2.00;;;;;19.30;66.61;100668.63;2403117;28;46212;-76
2022/06/08 08:16:46;;;;;;;;;3.00;1.50;;;;;19.35;66.40;100665.63;2403016;28;44647;-76
2022/06/08 08:17:56;;;;;;;;;2.00;2.00;;;;;19.41;66.54;100670.50;2402403;28;45360;-76
2022/06/08 08:19:07;;;;;;;;;2.75;2.25;;;;;19.47;67.13;100671.03;2401681;28;44738;-76
2022/06/08 08:20:19;;;;;;;;;2.00;2.00;;;;;19.48;66.44;100673.59;2396051;28;46143;-76
2022/06/08 08:21:32;;;;;;;;;1.25;1.25;;;;;19.54;66.91;100678.47;2403504;28;44766;-76
2022/06/08 08:22:43;;;;;;;;;2.50;1.25;;;;;19.58;66.90;100668.47;2407142;28;46472;-76
2022/06/08 08:23:53;;;;;;;;;2.25;1.00;;;;;19.65;66.94;100668.84;2412325;28;45255;-76
2022/06/08 08:25:04;;;;;;;;;1.75;1.75;;;;;19.69;66.24;100662.31;2402982;28;45502;-76
2022/06/08 08:26:14;;;;;;;;;1.00;1.00;;;;;19.77;66.51;100669.75;2402736;28;45272;-76
2022/06/08 08:27:25;;;;;;;;;3.50;3.00;;;;;19.84;66.67;100668.34;2403044;28;45597;-76
2022/06/08 08:28:35;;;;;;;;;1.00;1.00;;;;;19.92;66.78;100664.25;2403299;28;45292;-76
2022/06/08 08:29:45;;;;;;;;;3.00;3.00;;;;;19.98;66.80;100659.31;2403126;28;46234;-76
2022/06/08 08:30:56;;;;;;;;;2.00;2.00;;;;;20.06;66.42;100665.88;2403410;28;45348;-76
2022/06/08 08:32:09;;;;;;;;;2.50;1.00;;;;;20.11;66.41;100664.63;2402684;28;45358;-76
2022/06/08 08:33:19;;;;;;;;;1.75;1.75;;;;;20.19;66.61;100668.53;2411910;28;44644;-76
2022/06/08 08:34:29;;;;;;;;;1.00;1.00;;;;;20.24;65.77;100663.69;2409507;28;46739;-76
2022/06/08 08:35:40;;;;;;;;;1.00;1.00;;;;;20.28;65.64;100665.16;2403367;28;45415;-76
2022/06/08 08:36:51;;;;;;;;;1.50;0.50;;;;;20.32;64.93;100660.44;2401968;28;47482;-76
2022/06/08 08:38:02;;;;;;;;;0.00;0.00;;;;;20.33;65.03;100654.97;2402758;28;45298;-76
2022/06/08 08:39:12;;;;;;;;;0.25;0.00;;;;;20.38;65.23;100659.13;2401906;28;45161;-76
2022/06/08 08:40:53;;;;;;;;;1.75;1.75;;;;;20.43;65.44;100664.94;2401837;28;44775;-76
2022/06/08 08:42:20;;;;;;;;;1.00;1.00;;;;;20.46;65.22;100662.91;2408106;28;46623;-76
2022/06/08 08:43:35;;;;;;;;;0.50;0.50;;;;;20.49;64.60;100668.97;2421576;28;45303;-76
2022/06/08 08:44:50;;;;;;;;;2.00;0.50;;;;;20.53;64.77;100673.09;2418393;28;45613;-76
2022/06/08 08:46:34;;;;;;;;;0.00;0.00;;;;;20.56;64.90;100672.88;2421680;28;44616;-76
2022/06/08 08:47:55;;;;;;;;;0.75;0.75;;;;;20.57;63.90;100680.75;2404239;28;46339;-76
2022/06/08 08:49:23;;;;;;;;;1.00;1.00;;;;;20.56;64.19;100684.41;2399657;28;45290;-76
2022/06/08 08:51:20;;;;;;;;;1.00;0.00;;;;;20.59;64.97;100683.31;2402936;28;45339;-76
2022/06/08 08:52:42;;;;;;;;;1.00;0.00;;;;;20.62;65.13;100683.06;2387632;28;45540;-76
2022/06/08 08:54:28;;;;;;;;;1.00;1.00;;;;;20.63;64.87;100676.78;2403091;28;45400;-76
2022/06/08 08:56:14;;;;;;;;;0.00;0.00;;;;;20.64;64.78;100681.13;2402804;28;45396;-76
2022/06/08 08:58:01;;;;;;;;;0.50;0.50;;;;;20.68;65.15;100674.59;2401280;28;47528;-76
2022/06/08 08:59:18;;;;;;;;;0.00;0.00;;;;;20.67;65.01;100683.56;2394720;28;45610;-76
2022/06/08 09:00:37;;;;;;;;;3.00;0.75;;;;;20.69;65.44;100684.28;2407397;28;45488;-76
2022/06/08 09:01:52;;;;;;;;;0.00;0.00;;;;;20.69;65.12;100689.63;2402620;28;45427;-76
2022/06/08 09:03:15;;;;;;;;;1.00;1.00;;;;;20.74;65.52;100685.78;2401982;28;46312;-76
2022/06/08 09:04:40;;;;;;;;;1.00;1.00;;;;;20.75;65.26;100687.47;2411094;28;44859;-76
2022/06/08 09:05:54;;;;;;;;;0.00;0.00;;;;;20.76;65.44;100686.50;2402129;28;48051;-76
2022/06/08 09:07:13;;;;;;;;;1.00;1.00;;;;;20.77;65.68;100688.19;2402581;28;45325;-76
2022/06/08 09:08:24;;;;;;;;;1.00;1.00;;;;;20.79;64.91;100686.28;2403097;28;45425;-76
2022/06/08 09:09:34;;;;;;;;;0.25;0.00;;;;;20.79;64.79;100683.59;2402947;28;45380;-76
2022/06/08 09:10:45;;;;;;;;;0.00;0.00;;;;;20.82;64.94;100693.22;2402878;28;45369;-76
2022/06/08 09:11:55;;;;;;;;;1.00;1.00;;;;;20.79;64.93;100686.28;2402856;28;45349;-76
2022/06/08 09:13:06;;;;;;;;;1.00;1.00;;;;;20.80;64.84;100685.28;2402254;28;48077;-76
2022/06/08 09:14:23;;;;;;;;;0.75;0.75;;;;;20.79;64.03;100688.94;2395274;28;45543;-76
2022/06/08 09:15:47;;;;;;;;;0.00;0.00;;;;;20.79;64.26;100688.94;2402204;28;45506;-76
2022/06/08 09:17:35;;;;;;;;;1.25;0.75;;;;;20.77;63.63;100690.88;2403117;28;45244;-76
2022/06/08 09:18:46;;;;;;;;;1.00;1.00;;;;;20.74;64.18;100686.59;2380588;28;46602;-76
2022/06/08 09:19:56;;;;;;;;;0.00;0.00;;;;;20.74;64.73;100691.13;2383191;28;45396;-76
2022/06/08 09:21:26;;;;;;;;;0.00;0.00;;;;;20.75;64.88;100695.47;2388593;28;47151;-76
2022/06/08 09:22:36;;;;;;;;;0.00;0.00;;;;;20.76;64.56;100697.19;2398032;28;45371;-76
2022/06/08 09:23:51;;;;;;;;;0.25;0.25;;;;;20.75;64.69;100687.47;2402753;28;45336;-76
2022/06/08 09:25:31;;;;;;;;;1.00;1.00;;;;;20.75;65.04;100680.31;2402944;28;44691;-76
2022/06/08 09:26:42;;;;;;;;;1.00;1.00;;;;;20.77;65.28;100682.84;2400180;28;46812;-76
2022/06/08 09:27:56;;;;;;;;;1.00;1.00;;;;;20.78;65.04;100673.88;2402275;28;45535;-76
2022/06/08 09:29:17;;;;;;;;;1.50;1.50;;;;;20.84;64.47;100681.41;2402230;28;45350;-76
2022/06/08 09:30:46;;;;;;;;;1.00;1.00;;;;;20.87;64.32;100683.00;2403052;28;44690;-76
2022/06/08 09:31:56;;;;;;;;;2.00;1.00;;;;;20.86;64.93;100682.16;2402855;28;45417;-76
2022/06/08 09:33:17;;;;;;;;;1.00;1.00;;;;;20.89;64.85;100681.06;2402814;28;45348;-76
2022/06/08 09:34:32;;;;;;;;;1.00;1.00;;;;;20.90;64.39;100685.44;2402868;28;45731;-76
2022/06/08 09:36:06;;;;;;;;;1.00;1.00;;;;;20.92;64.83;100684.34;2402882;28;44644;-76
2022/06/08 09:37:24;;;;;;;;;1.00;1.00;;;;;20.93;63.37;100685.19;2400038;28;45310;-76
2022/06/08 09:38:40;;;;;;;;;1.00;1.00;;;;;20.95;63.89;100685.06;2411907;28;44856;-76
2022/06/08 09:39:52;;;;;;;;;1.00;1.00;;;;;20.98;64.25;100690.16;2409874;28;45518;-76
2022/06/08 09:41:21;;;;;;;;;1.00;1.00;;;;;21.00;64.57;100686.44;2404550;28;44567;-76
2022/06/08 09:42:56;;;;;;;;;0.50;0.50;;;;;21.04;65.25;100680.88;2413243;28;48097;-76
2022/06/08 09:44:26;;;;;;;;;4.00;0.50;;;;;21.07;64.06;100681.47;2408128;28;45326;-75
2022/06/08 09:46:02;;;;;;;;;1.00;1.00;;;;;21.11;64.11;100682.91;2404270;28;45790;-75
2022/06/08 09:52:20;;;;;;;;;1.00;1.00;;;;;21.13;63.97;100686.34;2395033;28;45812;-75
2022/06/08 09:53:51;;;;;;;;;2.00;1.00;;;;;21.16;64.61;100679.03;2395502;28;44543;-75
2022/06/08 09:55:26;;;;;;;;;1.25;1.25;;;;;21.20;63.31;100683.16;2403672;28;45494;-76
2022/06/08 09:56:55;;;;;;;;;1.00;1.00;;;;;21.22;63.29;100682.06;2404583;28;44674;-76
2022/06/08 09:58:24;;;;;;;;;1.00;0.25;;;;;21.25;63.00;100678.31;2404067;28;46194;-76
2022/06/08 10:00:02;;;;;;;;;2.00;1.00;;;;;21.24;62.49;100676.59;2404308;28;44759;-76
2022/06/08 10:01:57;;;;;;;;;3.00;1.00;;;;;21.24;62.39;100677.44;2403729;28;45560;-76
2022/06/08 10:03:13;;;;;;;;;1.50;1.50;;;;;21.28;62.65;100680.75;2380224;28;44878;-76
2022/06/08 10:04:45;;;;;;;;;1.50;1.50;;;;;21.32;62.61;100679.50;2396358;28;46468;-75
2022/06/08 10:06:20;;;;;;;;;1.00;1.00;;;;;21.35;63.00;100676.59;2404149;28;45182;-75
2022/06/08 10:07:51;;;;;;;;;1.25;1.25;;;;;21.38;61.78;100678.19;2404318;28;45732;-75
2022/06/08 10:09:10;;;;;;;;;1.00;1.00;;;;;21.39;61.35;100676.34;2413240;28;45319;-75
2022/06/08 10:10:23;;;;;;;;;1.25;1.00;;;;;21.41;61.80;100671.72;2409167;28;46447;-75
2022/06/08 10:11:43;;;;;;;;;1.00;1.00;;;;;21.43;62.62;100665.28;2413136;28;45169;-75
2022/06/08 10:12:59;;;;;;;;;1.00;1.00;;;;;21.48;61.92;100659.56;2409404;28;46481;-75
2022/06/08 10:14:28;;;;;;;;;1.00;1.00;;;;;21.52;61.28;100658.34;2403969;28;45285;-75
2022/06/08 10:15:45;;;;;;;;;1.00;1.00;;;;;21.54;61.10;100655.53;2412859;28;47072;-75
2022/06/08 10:17:03;;;;;;;;;1.25;1.25;;;;;21.56;61.79;100654.44;2399591;28;45502;-76
2022/06/08 10:18:21;;;;;;;;;2.00;2.00;;;;;21.61;61.05;100650.56;2403303;28;45390;-76
2022/06/08 10:19:51;;;;;;;;;1.00;1.00;;;;;21.63;61.31;100648.59;2400392;28;45699;-76
2022/06/08 10:21:31;;;;;;;;;2.00;2.00;;;;;21.69;62.11;100645.41;2402749;28;45315;-76
2022/06/08 10:22:56;;;;;;;;;0.50;0.50;;;;;21.75;60.33;100642.25;2401149;28;45466;-76
2022/06/08 10:24:17;;;;;;;;;1.75;0.75;;;;;21.78;60.47;100641.13;2403978;28;45706;-76
2022/06/08 10:25:48;;;;;;;;;1.00;1.00;;;;;21.79;60.25;100632.97;2403815;28;45696;-76
2022/06/08 10:27:13;;;;;;;;;2.50;1.00;;;;;21.84;60.52;100637.94;2412678;28;47260;-76
2022/06/08 10:28:48;;;;;;;;;1.00;1.00;;;;;21.87;60.27;100644.91;2407940;28;45181;-75
2022/06/08 10:30:21;;;;;;;;;1.00;1.00;;;;;21.86;59.73;100646.72;2394955;28;47571;-75
2022/06/08 10:31:40;;;;;;;;;2.00;1.00;;;;;21.87;59.95;100651.09;2403878;28;45165;-75
2022/06/08 10:33:01;;;;;;;;;2.00;2.00;;;;;21.90;59.51;100647.31;2412595;28;48239;-75
2022/06/08 10:34:38;;;;;;;;;3.00;1.00;;;;;21.95;59.86;100650.47;2408260;28;45258;-76
2022/06/08 10:35:53;;;;;;;;;0.25;0.00;;;;;21.98;59.43;100644.84;2409029;28;48302;-76
2022/06/08 10:37:15;;;;;;;;;1.00;1.00;;;;;22.02;59.33;100643.63;2409106;28;45512;-75
2022/06/08 10:38:27;;;;;;;;;1.00;1.00;;;;;22.06;60.08;100633.50;2402534;28;47926;-75
2022/06/08 10:39:39;;;;;;;;;1.00;1.00;;;;;22.11;59.95;100635.78;2403487;28;46823;-75
2022/06/08 10:40:59;;;;;;;;;1.00;1.00;;;;;22.12;58.62;100633.00;2412465;28;48338;-75
2022/06/08 10:42:40;;;;;;;;;1.00;1.00;;;;;22.20;59.25;100635.00;2409292;28;45385;-75
2022/06/08 10:43:51;;;;;;;;;1.00;1.00;;;;;22.24;59.37;100630.25;2406418;28;46235;-75
2022/06/08 10:45:22;;;;;;;;;0.00;0.00;;;;;22.28;59.16;100634.34;2403160;28;44759;-75